Time;durP1;ratioP1;P1;durP2;ratioP2;P2;SDS_P1;SDS_P2;PMS_P1;PMS_P2;Temp;Humidity;BMP_temperature;BMP_pressure;BME280_temperature;BME280_humidity;BME280_pressure;Samples;Min_cycle;Max_cycle;Signal;HPM_P1;HPM_P2
2022/09/01 00:01:48;;;;;;;29.20;13.25;;;19.20;99.90;;;;;;5094139;28;20083;-58
2022/09/01 00:04:18;;;;;;;33.17;14.98;;;19.20;99.90;;;;;;5094194;28;20385;-58
2022/09/01 00:06:46;;;;;;;32.70;14.43;;;19.20;99.90;;;;;;5094368;28;20031;-58
2022/09/01 00:09:15;;;;;;;30.38;14.63;;;19.10;99.90;;;;;;5094329;28;20031;-58
2022/09/01 00:11:47;;;;;;;37.47;16.23;;;19.10;99.90;;;;;;5076087;28;20027;-58
2022/09/01 00:14:14;;;;;;;35.97;17.33;;;19.20;99.90;;;;;;5094101;28;20491;-58
2022/09/01 00:16:40;;;;;;;33.15;15.60;;;19.20;99.90;;;;;;5094201;28;20024;-58
2022/09/01 00:19:06;;;;;;;34.30;16.42;;;19.10;99.90;;;;;;5111857;28;20440;-58
2022/09/01 00:21:37;;;;;;;37.92;17.75;;;19.10;99.90;;;;;;5114478;28;20047;-58
2022/09/01 00:24:04;;;;;;;32.17;16.50;;;19.10;99.90;;;;;;5114247;28;20042;-58
2022/09/01 00:26:30;;;;;;;27.88;16.98;;;19.10;99.90;;;;;;5114778;28;20055;-58
2022/09/01 00:28:56;;;;;;;29.85;18.33;;;19.10;99.90;;;;;;5063302;28;20485;-58
2022/09/01 00:31:23;;;;;;;29.92;19.25;;;19.10;99.90;;;;;;5094596;28;20024;-58
2022/09/01 00:33:49;;;;;;;35.83;20.15;;;19.10;99.90;;;;;;5097951;28;20117;-58
2022/09/01 00:36:16;;;;;;;42.72;19.70;;;19.10;99.90;;;;;;5097685;28;20462;-58
2022/09/01 00:38:43;;;;;;;38.97;21.00;;;19.20;99.90;;;;;;5079668;28;20035;-58
2022/09/01 00:41:09;;;;;;;45.50;22.85;;;19.10;99.90;;;;;;5097731;28;20026;-58
2022/09/01 00:43:57;;;;;;;45.88;23.85;;;19.10;99.90;;;;;;5097732;28;20089;-58
2022/09/01 00:46:34;;;;;;;46.05;22.95;;;19.20;99.90;;;;;;5097841;28;20032;-58
2022/09/01 00:49:02;;;;;;;52.50;24.90;;;19.20;99.90;;;;;;5097643;28;20283;-58
2022/09/01 00:51:30;;;;;;;48.53;22.35;;;19.20;99.90;;;;;;5097763;28;20059;-58
2022/09/01 00:53:58;;;;;;;56.45;24.10;;;19.20;99.90;;;;;;5079504;28;20270;-58
2022/09/01 00:56:24;;;;;;;49.55;22.73;;;19.20;99.90;;;;;;5079063;28;20035;-58
2022/09/01 00:58:52;;;;;;;58.50;23.98;;;19.20;99.90;;;;;;5097778;28;20089;-58
2022/09/01 01:01:18;;;;;;;71.18;24.92;;;19.10;99.90;;;;;;5097254;28;20028;-58
2022/09/01 01:03:45;;;;;;;60.17;23.98;;;19.10;99.90;;;;;;5079000;28;20024;-58
2022/09/01 01:06:15;;;;;;;57.33;26.13;;;19.10;99.90;;;;;;5097432;28;20028;-58
2022/09/01 01:08:55;;;;;;;74.90;26.67;;;19.10;99.90;;;;;;5097222;28;20063;-58
2022/09/01 01:11:22;;;;;;;62.27;27.83;;;19.10;99.90;;;;;;5097146;28;20036;-58
2022/09/01 01:13:55;;;;;;;55.58;23.20;;;19.20;99.90;;;;;;5078901;28;20749;-58
2022/09/01 01:16:24;;;;;;;61.10;25.08;;;19.20;99.90;;;;;;5078861;28;20116;-58
2022/09/01 01:18:51;;;;;;;51.53;24.00;;;19.20;99.90;;;;;;5112581;28;20481;-58
2022/09/01 01:24:21;;;;;;;53.60;24.73;;;19.20;99.90;;;;;;5098813;28;20031;-58
2022/09/01 01:26:48;;;;;;;60.30;25.48;;;19.30;99.90;;;;;;5099124;28;20027;-58
2022/09/01 01:29:16;;;;;;;49.55;24.80;;;19.40;99.90;;;;;;5080291;28;20043;-57
2022/09/01 01:31:48;;;;;;;54.42;25.17;;;19.50;99.90;;;;;;5078564;28;20031;-58
2022/09/01 01:34:16;;;;;;;48.05;23.20;;;19.40;99.90;;;;;;5078718;28;20539;-58
2022/09/01 01:36:42;;;;;;;43.75;23.25;;;19.40;99.90;;;;;;5078402;28;20191;-58
2022/09/01 01:39:24;;;;;;;44.13;24.60;;;19.40;99.90;;;;;;5078470;28;20036;-58
2022/09/01 01:41:52;;;;;;;46.17;23.40;;;19.40;99.90;;;;;;5096614;28;20505;-58
2022/09/01 01:44:23;;;;;;;41.90;24.35;;;19.30;99.90;;;;;;5077640;28;20028;-57
2022/09/01 01:46:52;;;;;;;40.30;23.67;;;19.30;99.90;;;;;;5078369;28;20030;-58
2022/09/01 01:49:22;;;;;;;37.53;22.00;;;19.40;99.90;;;;;;5067363;28;20078;-57
2022/09/01 01:51:54;;;;;;;;;;;19.30;99.90;;;;;;5038656;28;20487;-58
2022/09/01 01:54:23;;;;;;;38.47;22.70;;;19.30;99.90;;;;;;5038221;28;20335;-58
2022/09/01 01:56:49;;;;;;;46.70;26.48;;;19.30;99.90;;;;;;5038146;28;20029;-58
2022/09/01 01:59:16;;;;;;;50.58;26.60;;;19.30;99.90;;;;;;5037971;28;20057;-57
2022/09/01 02:01:47;;;;;;;58.78;28.05;;;19.30;99.90;;;;;;5021358;28;20025;-57
2022/09/01 02:04:15;;;;;;;56.85;27.63;;;19.30;99.90;;;;;;5038117;28;20116;-58
2022/09/01 02:06:46;;;;;;;57.70;27.67;;;19.30;99.90;;;;;;5055817;28;20040;-57
2022/09/01 02:09:16;;;;;;;50.85;26.25;;;19.30;99.90;;;;;;5037919;28;20040;-58
2022/09/01 02:11:44;;;;;;;68.95;26.83;;;19.30;99.90;;;;;;5038059;28;20041;-58
2022/09/01 02:14:12;;;;;;;54.72;28.00;;;19.40;99.90;;;;;;5037792;28;20490;-58
2022/09/01 02:16:40;;;;;;;53.35;27.00;;;19.40;99.90;;;;;;5037832;28;20056;-58
2022/09/01 02:19:08;;;;;;;56.25;29.27;;;19.40;99.90;;;;;;5037533;28;21142;-57
2022/09/01 02:21:35;;;;;;;47.10;26.75;;;19.40;99.90;;;;;;5055212;28;20025;-58
2022/09/01 02:24:07;;;;;;;49.70;25.45;;;19.40;99.90;;;;;;5037709;28;20028;-58
2022/09/01 02:26:38;;;;;;;39.53;23.33;;;19.40;99.90;;;;;;5037514;28;20055;-58
2022/09/01 02:29:08;;;;;;;41.20;22.95;;;19.40;99.90;;;;;;5037287;28;20106;-58
2022/09/01 02:31:38;;;;;;;36.55;21.33;;;19.40;99.90;;;;;;5055353;28;20033;-58
2022/09/01 02:34:12;;;;;;;41.03;23.50;;;19.40;99.90;;;;;;5037439;28;20033;-58
2022/09/01 02:36:46;;;;;;;37.65;22.83;;;19.40;99.90;;;;;;5037285;28;20060;-58
2022/09/01 02:39:36;;;;;;;41.15;21.35;;;19.40;99.90;;;;;;5037453;28;20025;-58
2022/09/01 02:42:02;;;;;;;36.80;21.50;;;19.40;99.90;;;;;;5054512;28;20041;-57
2022/09/01 02:44:29;;;;;;;35.47;21.48;;;19.30;99.90;;;;;;5037210;28;20021;-58
2022/09/01 02:46:57;;;;;;;32.28;20.83;;;19.30;99.90;;;;;;5037258;28;20078;-58
2022/09/01 02:49:27;;;;;;;46.08;24.15;;;19.30;99.90;;;;;;5044898;28;20064;-57
2022/09/01 02:51:58;;;;;;;44.75;24.63;;;19.30;99.90;;;;;;5057004;28;20123;-58
2022/09/01 02:54:27;;;;;;;48.30;23.90;;;19.30;99.90;;;;;;5056869;28;20045;-58
2022/09/01 02:56:53;;;;;;;37.70;23.35;;;19.30;99.90;;;;;;5074053;28;20032;-58
2022/09/01 02:59:26;;;;;;;48.53;25.23;;;19.30;99.90;;;;;;5040695;28;20040;-58
2022/09/01 03:01:56;;;;;;;40.40;23.67;;;19.30;99.90;;;;;;5056735;28;20031;-58
2022/09/01 03:04:23;;;;;;;48.08;25.45;;;19.30;99.90;;;;;;5074638;28;20020;-57
2022/09/01 03:06:53;;;;;;;42.92;25.65;;;19.30;99.90;;;;;;5056827;28;20029;-57
2022/09/01 03:09:20;;;;;;;49.55;26.65;;;19.30;99.90;;;;;;5056629;28;20044;-58
2022/09/01 03:11:50;;;;;;;46.35;26.95;;;19.30;99.90;;;;;;5056519;28;20032;-58
2022/09/01 03:14:16;;;;;;;51.07;27.00;;;19.30;99.90;;;;;;5074822;28;20033;-58
2022/09/01 03:16:43;;;;;;;45.00;26.00;;;19.20;99.90;;;;;;5056274;28;20121;-57
2022/09/01 03:19:10;;;;;;;44.33;25.77;;;19.20;99.90;;;;;;5074356;28;20035;-58
2022/09/01 03:21:41;;;;;;;46.17;25.30;;;19.20;99.90;;;;;;5056560;28;20029;-58
2022/09/01 03:24:14;;;;;;;44.25;25.27;;;19.20;99.90;;;;;;5056279;28;20085;-58
2022/09/01 03:26:41;;;;;;;48.92;26.33;;;19.10;99.90;;;;;;5056397;28;20027;-58
2022/09/01 03:29:07;;;;;;;51.90;25.73;;;19.10;99.90;;;;;;5056172;28;20359;-58
2022/09/01 03:31:34;;;;;;;45.70;23.67;;;19.10;99.90;;;;;;5056416;28;20083;-58
2022/09/01 03:34:02;;;;;;;52.20;24.63;;;19.10;99.90;;;;;;5056365;28;20029;-58
2022/09/01 03:36:32;;;;;;;44.85;22.38;;;19.10;99.90;;;;;;5056214;28;20029;-58
2022/09/01 03:38:59;;;;;;;45.85;23.45;;;19.10;99.90;;;;;;5074312;28;20020;-58
2022/09/01 03:41:28;;;;;;;45.85;23.58;;;19.10;99.90;;;;;;5039904;28;20044;-57
2022/09/01 03:43:56;;;;;;;45.35;21.58;;;19.10;99.90;;;;;;5056241;28;20024;-58
2022/09/01 03:46:24;;;;;;;36.42;20.83;;;19.20;99.90;;;;;;5056054;28;20029;-57
2022/09/01 03:48:53;;;;;;;34.15;20.38;;;19.20;99.90;;;;;;5056260;28;20059;-58
2022/09/01 03:51:21;;;;;;;31.02;18.85;;;19.20;99.90;;;;;;5074392;28;20050;-58
2022/09/01 03:53:53;;;;;;;27.90;16.75;;;19.20;99.90;;;;;;5056160;28;20025;-58
2022/09/01 03:56:20;;;;;;;29.77;18.13;;;19.00;99.90;;;;;;5056042;28;20036;-58
2022/09/01 03:58:47;;;;;;;28.85;17.75;;;19.00;99.90;;;;;;5056085;28;20024;-58
2022/09/01 04:01:16;;;;;;;26.48;17.98;;;19.10;99.90;;;;;;5056062;28;20048;-58
2022/09/01 04:03:47;;;;;;;26.48;16.58;;;19.00;99.90;;;;;;5074032;28;20121;-58
2022/09/01 04:06:18;;;;;;;23.17;16.10;;;19.00;99.90;;;;;;5056608;28;20029;-58
2022/09/01 04:08:45;;;;;;;24.88;15.23;;;19.00;99.90;;;;;;5060018;28;20066;-58
2022/09/01 04:11:22;;;;;;;26.42;16.40;;;19.00;99.90;;;;;;5060100;28;20036;-58
2022/09/01 04:13:51;;;;;;;23.90;15.82;;;19.00;99.90;;;;;;5059807;28;20024;-58
2022/09/01 04:19:18;;;;;;;27.65;15.25;;;18.90;99.90;;;;;;5059753;28;20029;-58
2022/09/01 04:21:49;;;;;;;28.80;15.85;;;19.00;99.90;;;;;;5059724;28;20033;-58
2022/09/01 04:24:17;;;;;;;33.28;16.92;;;19.00;99.90;;;;;;5059818;28;20032;-58
2022/09/01 04:26:47;;;;;;;31.40;15.85;;;19.00;99.90;;;;;;5077761;28;20563;-58
2022/09/01 04:29:17;;;;;;;33.03;15.88;;;19.10;99.90;;;;;;5059475;28;20035;-58
2022/09/01 04:31:52;;;;;;;24.58;13.30;;;19.10;99.90;;;;;;5059746;28;20029;-58
2022/09/01 04:34:21;;;;;;;24.30;13.88;;;19.20;99.90;;;;;;5059735;28;20033;-58
2022/09/01 04:36:47;;;;;;;25.63;13.02;;;19.20;99.90;;;;;;5059375;28;20082;-58
2022/09/01 04:39:13;;;;;;;22.83;12.85;;;19.20;99.90;;;;;;5059298;28;20037;-58
2022/09/01 04:41:44;;;;;;;27.05;12.98;;;19.20;99.90;;;;;;5059761;28;20112;-58
2022/09/01 04:44:12;;;;;;;26.33;12.68;;;19.10;99.90;;;;;;5042523;28;20031;-58
2022/09/01 04:46:41;;;;;;;20.65;10.88;;;19.20;99.90;;;;;;5059425;28;20127;-58
2022/09/01 04:49:09;;;;;;;18.42;9.30;;;19.20;99.90;;;;;;5059116;28;20056;-57
2022/09/01 04:51:41;;;;;;;14.52;9.60;;;19.20;99.90;;;;;;5059070;28;20100;-58
2022/09/01 04:54:13;;;;;;;15.00;9.57;;;19.10;99.90;;;;;;5059273;28;20036;-58
2022/09/01 04:56:43;;;;;;;17.13;8.98;;;19.10;99.90;;;;;;5059147;28;20028;-58
2022/09/01 04:59:13;;;;;;;14.38;10.32;;;19.20;99.90;;;;;;5059207;28;20341;-58
2022/09/01 05:01:44;;;;;;;16.27;9.68;;;19.20;99.90;;;;;;5059118;28;20036;-57
2022/09/01 05:04:20;;;;;;;21.05;10.18;;;19.20;99.90;;;;;;5058970;28;20028;-58
2022/09/01 05:06:49;;;;;;;21.55;9.65;;;19.10;99.90;;;;;;5076968;28;20029;-57
2022/09/01 05:09:17;;;;;;;20.08;9.65;;;19.20;99.90;;;;;;5058946;28;20482;-57
2022/09/01 05:12:14;;;;;;;23.13;10.38;;;19.20;99.90;;;;;;5076023;28;20039;-58
2022/09/01 05:14:47;;;;;;;18.17;9.05;;;19.30;99.90;;;;;;5058592;28;20118;-58
2022/09/01 05:17:16;;;;;;;15.40;8.23;;;19.30;99.90;;;;;;5051417;28;20028;-58
2022/09/01 05:19:46;;;;;;;14.88;8.18;;;19.40;99.90;;;;;;5043713;28;20382;-58
2022/09/01 05:22:14;;;;;;;15.05;8.88;;;19.40;99.90;;;;;;5055165;28;20024;-58
2022/09/01 05:24:45;;;;;;;16.05;10.52;;;19.40;99.90;;;;;;5055918;28;20017;-58
2022/09/01 05:27:13;;;;;;;18.52;9.43;;;19.50;99.90;;;;;;5056269;28;20031;-57
2022/09/01 05:29:40;;;;;;;19.65;8.85;;;19.50;99.90;;;;;;5050548;28;20036;-58
2022/09/01 05:32:11;;;;;;;14.98;8.07;;;19.50;99.90;;;;;;5067623;28;20060;-58
2022/09/01 05:34:39;;;;;;;15.07;8.13;;;19.50;99.90;;;;;;5055616;28;20512;-58
2022/09/01 05:37:07;;;;;;;19.95;9.18;;;19.40;99.90;;;;;;5056812;28;20036;-58
2022/09/01 05:39:36;;;;;;;18.05;9.27;;;19.50;99.90;;;;;;5063571;28;20024;-58
2022/09/01 05:42:06;;;;;;;17.50;9.15;;;19.70;99.90;;;;;;5059774;28;20052;-58
2022/09/01 05:44:35;;;;;;;19.13;8.20;;;19.80;99.90;;;;;;5069679;28;20031;-58
2022/09/01 05:47:04;;;;;;;14.27;7.18;;;19.70;99.90;;;;;;5082777;28;20265;-58
2022/09/01 05:49:31;;;;;;;16.90;8.90;;;19.80;99.90;;;;;;5082596;28;20052;-58
2022/09/01 05:51:59;;;;;;;9.07;7.13;;;19.80;99.90;;;;;;5057842;28;20090;-58
2022/09/01 05:54:28;;;;;;;12.23;7.30;;;19.70;99.90;;;;;;5057003;28;20028;-58
2022/09/01 05:56:57;;;;;;;14.15;7.45;;;19.70;99.90;;;;;;5041390;28;20509;-58
2022/09/01 05:59:30;;;;;;;16.70;7.25;;;19.70;99.90;;;;;;5069743;28;20029;-58
2022/09/01 06:01:59;;;;;;;14.27;7.57;;;19.60;99.90;;;;;;5067387;28;20151;-58
2022/09/01 06:04:26;;;;;;;16.80;8.02;;;19.60;99.90;;;;;;5054188;28;20029;-58
2022/09/01 06:06:56;;;;;;;12.75;6.93;;;19.60;99.90;;;;;;5057872;28;20028;-58
2022/09/01 06:09:22;;;;;;;11.07;7.45;;;19.70;99.90;;;;;;5071479;28;20029;-58
2022/09/01 06:11:50;;;;;;;11.90;6.70;;;19.60;99.90;;;;;;5070906;28;20083;-58
2022/09/01 06:14:17;;;;;;;19.98;7.28;;;19.50;99.90;;;;;;5075219;28;20024;-58
2022/09/01 06:16:46;;;;;;;17.23;8.40;;;19.60;99.90;;;;;;5068478;28;20028;-58
2022/09/01 06:19:13;;;;;;;21.08;7.30;;;19.70;99.90;;;;;;5057410;28;20030;-58
2022/09/01 06:21:44;;;;;;;15.02;7.25;;;19.60;99.90;;;;;;5060683;28;20380;-58
2022/09/01 06:24:10;;;;;;;11.80;6.63;;;19.60;99.90;;;;;;5060382;28;20355;-58
2022/09/01 06:26:38;;;;;;;10.23;6.60;;;19.40;99.90;;;;;;5061348;28;20034;-58
2022/09/01 06:29:14;;;;;;;19.13;6.47;;;19.50;99.90;;;;;;5065678;28;20024;-58
2022/09/01 06:31:50;;;;;;;10.13;5.80;;;19.30;99.90;;;;;;5072725;28;20024;-58
2022/09/01 06:34:21;;;;;;;10.30;6.60;;;19.30;99.90;;;;;;5048744;28;20026;-58
2022/09/01 06:36:51;;;;;;;10.82;6.53;;;19.40;99.90;;;;;;5063191;28;20067;-58
2022/09/01 06:39:19;;;;;;;11.95;6.57;;;19.40;99.90;;;;;;5048533;28;20063;-58
2022/09/01 06:41:51;;;;;;;14.20;6.32;;;19.50;99.90;;;;;;5056296;28;20474;-58
2022/09/01 06:44:21;;;;;;;10.48;5.60;;;19.60;99.90;;;;;;5061148;28;20089;-58
2022/09/01 06:46:54;;;;;;;10.75;5.00;;;19.50;99.90;;;;;;5064727;28;20061;-58
2022/09/01 06:49:22;;;;;;;12.60;5.93;;;19.50;99.90;;;;;;5053140;28;20044;-58
2022/09/01 06:51:51;;;;;;;13.65;6.50;;;19.60;99.90;;;;;;5072197;28;20024;-58
2022/09/01 06:54:22;;;;;;;12.30;6.40;;;19.70;99.90;;;;;;5058487;28;20418;-58
2022/09/01 06:56:48;;;;;;;12.50;5.55;;;19.70;99.90;;;;;;5066117;28;20047;-58
2022/09/01 06:59:18;;;;;;;13.32;6.13;;;19.90;99.90;;;;;;5079246;28;20041;-58
2022/09/01 07:01:53;;;;;;;12.65;5.93;;;20.10;99.90;;;;;;5061026;28;20029;-58
2022/09/01 07:04:30;;;;;;;13.20;5.05;;;20.30;99.90;;;;;;5049855;28;20032;-58
2022/09/01 07:07:03;;;;;;;17.70;6.22;;;20.40;99.90;;;;;;5068982;28;20096;-58
2022/09/01 07:09:48;;;;;;;10.13;5.13;;;20.50;99.90;;;;;;5080931;28;20112;-58
2022/09/01 07:12:27;;;;;;;12.60;5.60;;;20.40;99.90;;;;;;5058251;28;20056;-58
2022/09/01 07:14:55;;;;;;;9.75;6.18;;;20.60;99.90;;;;;;5058819;28;20033;-58
2022/09/01 07:17:23;;;;;;;10.65;5.35;;;20.70;99.90;;;;;;5091462;28;20039;-58
2022/09/01 07:19:49;;;;;;;8.13;5.22;;;20.90;99.90;;;;;;5072961;28;20028;-58
2022/09/01 07:22:15;;;;;;;10.82;5.60;;;21.00;99.90;;;;;;5068960;28;20027;-58
2022/09/01 07:24:45;;;;;;;21.52;6.43;;;21.20;99.90;;;;;;5070246;28;20028;-58
2022/09/01 07:27:29;;;;;;;7.57;4.15;;;21.10;99.90;;;;;;5066763;28;20071;-58
2022/09/01 07:29:56;;;;;;;6.10;4.05;;;21.00;99.90;;;;;;5051118;28;20452;-58
2022/09/01 07:32:22;;;;;;;9.85;5.03;;;20.90;99.90;;;;;;5072824;28;20036;-58
2022/09/01 07:34:49;;;;;;;13.82;5.43;;;21.00;99.90;;;;;;5065538;28;20433;-58
2022/09/01 07:37:17;;;;;;;12.23;5.18;;;20.90;99.90;;;;;;5065689;28;20021;-58
2022/09/01 07:39:45;;;;;;;12.90;4.88;;;20.90;99.90;;;;;;5043555;28;20028;-58
2022/09/01 07:42:40;;;;;;;11.93;4.75;;;21.00;99.90;;;;;;5034445;28;20029;-58
2022/09/01 07:45:24;;;;;;;6.88;3.80;;;21.20;99.90;;;;;;5067641;28;20067;-58
2022/09/01 07:48:18;;;;;;;9.07;4.63;;;21.20;99.90;;;;;;5048011;28;20486;-58
2022/09/01 07:50:48;;;;;;;10.02;5.03;;;20.90;99.90;;;;;;5044188;28;20045;-58
2022/09/01 07:53:28;;;;;;;18.65;5.40;;;20.80;99.90;;;;;;5040078;28;20342;-58
2022/09/01 07:55:55;;;;;;;6.60;4.30;;;20.80;99.90;;;;;;5068314;28;20077;-58
2022/09/01 07:58:28;;;;;;;5.28;3.90;;;20.90;99.90;;;;;;5076833;28;20037;-58
2022/09/01 08:01:01;;;;;;;15.18;5.13;;;20.80;99.90;;;;;;5062041;28;20088;-58
2022/09/01 08:03:29;;;;;;;12.85;4.20;;;20.80;99.90;;;;;;5072880;28;20095;-58
2022/09/01 08:06:04;;;;;;;11.18;4.30;;;20.90;99.90;;;;;;5059624;28;20118;-58
2022/09/01 08:08:32;;;;;;;5.82;3.50;;;21.00;99.90;;;;;;5089304;28;20367;-58
2022/09/01 08:10:58;;;;;;;8.13;4.47;;;21.00;99.90;;;;;;5059753;28;20036;-58
2022/09/01 08:13:24;;;;;;;8.35;4.93;;;21.00;99.90;;;;;;5065783;28;20033;-58
2022/09/01 08:15:50;;;;;;;15.02;5.75;;;20.80;99.90;;;;;;5051018;28;20110;-58
2022/09/01 08:18:17;;;;;;;10.57;5.28;;;20.90;99.90;;;;;;5061025;28;20096;-57
2022/09/01 08:20:46;;;;;;;15.60;6.05;;;21.00;99.90;;;;;;5076098;28;20489;-58
2022/09/01 08:23:25;;;;;;;8.63;4.68;;;21.00;99.90;;;;;;5054681;28;20375;-58
2022/09/01 08:25:53;;;;;;;7.85;5.13;;;20.90;99.90;;;;;;5065635;28;20028;-58
2022/09/01 08:28:19;;;;;;;10.00;4.57;;;21.00;99.90;;;;;;5055591;28;20481;-58
2022/09/01 08:30:47;;;;;;;11.75;4.22;;;21.00;99.90;;;;;;5038669;28;20032;-58
2022/09/01 08:33:14;;;;;;;5.30;3.53;;;21.00;99.90;;;;;;5067032;28;20090;-58
2022/09/01 08:35:48;;;;;;;9.32;4.28;;;21.00;99.90;;;;;;5056868;28;20031;-58
2022/09/01 08:38:15;;;;;;;7.38;4.35;;;21.20;99.90;;;;;;5064050;28;20490;-58
2022/09/01 08:40:50;;;;;;;8.60;3.70;;;21.30;99.70;;;;;;5077477;28;20043;-58
2022/09/01 08:43:38;;;;;;;7.72;3.50;;;21.10;98.90;;;;;;5054059;28;20027;-58
2022/09/01 08:46:36;;;;;;;8.05;4.32;;;21.20;99.90;;;;;;5042458;28;20021;-58
2022/09/01 08:49:11;;;;;;;7.28;3.85;;;21.20;99.90;;;;;;5072141;28;20036;-58
2022/09/01 08:52:06;;;;;;;7.18;3.53;;;21.30;98.70;;;;;;5066539;28;20052;-58
2022/09/01 08:54:56;;;;;;;9.13;4.20;;;21.30;99.90;;;;;;5055137;28;20040;-58
2022/09/01 08:57:29;;;;;;;5.43;3.33;;;21.40;98.20;;;;;;5068762;28;20048;-58
2022/09/01 09:00:19;;;;;;;7.00;3.60;;;21.30;98.80;;;;;;5073612;28;20044;-59
2022/09/01 09:03:09;;;;;;;12.18;5.03;;;21.40;97.10;;;;;;5088061;28;20516;-58
2022/09/01 09:06:02;;;;;;;12.97;5.03;;;21.20;97.80;;;;;;5071906;28;20111;-59
2022/09/01 09:08:51;;;;;;;7.07;4.00;;;21.50;99.80;;;;;;5059583;28;20612;-58
2022/09/01 09:11:39;;;;;;;9.40;3.97;;;21.40;97.50;;;;;;5064906;28;20055;-58
2022/09/01 09:14:31;;;;;;;8.50;3.80;;;21.40;96.80;;;;;;5084146;28;20036;-59
2022/09/01 09:16:57;;;;;;;8.73;3.90;;;21.40;96.90;;;;;;5060588;28;20031;-59
2022/09/01 09:19:33;;;;;;;14.43;5.15;;;21.40;96.50;;;;;;5071788;28;20648;-59
2022/09/01 09:22:03;;;;;;;13.52;4.00;;;21.50;97.20;;;;;;5082232;28;20025;-59
2022/09/01 09:25:06;;;;;;;6.80;3.08;;;21.50;97.00;;;;;;5064551;28;20024;-58
2022/09/01 09:27:39;;;;;;;9.32;4.57;;;21.60;97.10;;;;;;5076101;28;20119;-59
2022/09/01 09:30:17;;;;;;;4.78;3.03;;;21.40;96.70;;;;;;5069789;28;20032;-58
2022/09/01 09:33:04;;;;;;;5.30;3.00;;;21.20;95.70;;;;;;5069571;28;20083;-58
2022/09/01 09:35:39;;;;;;;5.60;3.03;;;21.10;96.10;;;;;;5061195;28;20075;-59
2022/09/01 09:38:17;;;;;;;12.90;4.50;;;21.10;96.60;;;;;;5060129;28;20458;-58
2022/09/01 09:41:08;;;;;;;12.60;5.00;;;21.00;97.30;;;;;;5065135;28;20036;-59
2022/09/01 09:43:47;;;;;;;12.32;3.50;;;20.80;97.10;;;;;;5069415;28;20078;-59
2022/09/01 09:46:25;;;;;;;12.15;3.15;;;21.00;97.60;;;;;;5055256;28;20029;-58
2022/09/01 09:49:24;;;;;;;8.90;4.35;;;21.00;97.30;;;;;;5062549;28;20040;-59
2022/09/01 09:52:01;;;;;;;5.38;2.78;;;21.30;97.30;;;;;;5068747;28;20076;-59
2022/09/01 09:54:32;;;;;;;9.15;4.10;;;21.20;95.50;;;;;;5074170;28;20054;-59
2022/09/01 09:57:07;;;;;;;8.43;3.55;;;21.40;95.50;;;;;;5065971;28;20029;-58
2022/09/01 09:59:55;;;;;;;4.35;3.17;;;21.30;96.10;;;;;;5071206;28;20047;-59
2022/09/01 10:02:27;;;;;;;14.90;4.45;;;21.40;95.00;;;;;;5070801;28;20375;-59
2022/09/01 10:04:54;;;;;;;10.90;4.40;;;21.50;95.80;;;;;;5070943;28;20039;-58
2022/09/01 10:07:35;;;;;;;9.10;3.88;;;21.40;95.10;;;;;;5068422;28;20027;-59
2022/09/01 10:10:23;;;;;;;11.95;3.83;;;21.30;95.20;;;;;;5074239;28;20071;-59
2022/09/01 10:12:51;;;;;;;10.93;4.30;;;21.30;95.60;;;;;;5073606;28;20505;-58
2022/09/01 10:15:20;;;;;;;8.23;3.60;;;21.10;95.50;;;;;;5075359;28;20478;-59
2022/09/01 10:17:47;;;;;;;17.25;3.83;;;21.10;96.80;;;;;;5072749;28;20095;-59
2022/09/01 10:20:25;;;;;;;10.07;3.95;;;21.20;96.80;;;;;;5067478;28;20024;-59
2022/09/01 10:22:52;;;;;;;10.27;3.97;;;21.30;97.20;;;;;;5059426;28;20475;-58
2022/09/01 10:25:27;;;;;;;8.75;3.53;;;21.30;97.90;;;;;;5060276;28;20064;-58
2022/09/01 10:28:05;;;;;;;9.35;3.45;;;21.30;96.80;;;;;;5072379;28;20029;-58
2022/09/01 10:30:41;;;;;;;11.27;4.07;;;21.30;96.70;;;;;;5063030;28;20108;-58
2022/09/01 10:33:08;;;;;;;8.98;3.50;;;21.20;96.50;;;;;;5065846;28;20037;-59
2022/09/01 10:35:38;;;;;;;7.63;3.90;;;21.10;96.50;;;;;;5069919;28;20543;-58
2022/09/01 10:38:15;;;;;;;10.85;4.18;;;21.20;96.60;;;;;;5075337;28;20028;-58
2022/09/01 10:40:47;;;;;;;6.93;3.35;;;21.30;97.80;;;;;;5075201;28;20074;-58
2022/09/01 10:43:34;;;;;;;8.60;4.35;;;21.30;96.70;;;;;;5069203;28;20060;-58
2022/09/01 10:46:21;;;;;;;11.35;4.03;;;21.30;96.20;;;;;;5074253;28;20032;-58
2022/09/01 10:48:55;;;;;;;9.50;3.95;;;21.40;96.20;;;;;;5069214;28;20191;-59
2022/09/01 10:51:21;;;;;;;12.52;5.30;;;21.50;97.50;;;;;;5068002;28;20753;-59
2022/09/01 10:53:51;;;;;;;7.53;3.90;;;21.50;96.90;;;;;;5072524;28;20016;-59
2022/09/01 10:56:35;;;;;;;12.20;4.95;;;21.60;96.50;;;;;;5076696;28;20126;-59
2022/09/01 10:59:23;;;;;;;14.90;4.57;;;21.60;95.30;;;;;;5069286;28;20043;-58
2022/09/01 11:01:49;;;;;;;10.35;4.93;;;21.60;95.20;;;;;;5065994;28;20052;-59
2022/09/01 11:04:17;;;;;;;8.07;4.47;;;21.40;95.20;;;;;;5057405;28;20432;-58
2022/09/01 11:07:01;;;;;;;16.58;4.95;;;21.20;96.20;;;;;;5054791;28;20021;-59
2022/09/01 11:09:41;;;;;;;19.00;6.55;;;21.40;96.60;;;;;;5055012;28;20043;-59
2022/09/01 11:12:50;;;;;;;8.73;4.93;;;21.30;97.80;;;;;;5054443;28;20439;-58
2022/09/01 11:15:16;;;;;;;9.88;4.18;;;21.30;97.40;;;;;;5030888;28;20043;-58
2022/09/01 11:17:45;;;;;;;9.65;4.60;;;21.20;98.10;;;;;;5060190;28;20040;-58
2022/09/01 11:20:24;;;;;;;11.02;4.10;;;21.10;99.90;;;;;;5074173;28;20484;-59
2022/09/01 11:23:22;;;;;;;5.85;3.50;;;21.20;99.90;;;;;;5070719;28;20024;-58
2022/09/01 11:25:49;;;;;;;8.15;4.97;;;21.10;99.60;;;;;;5087134;28;20035;-58
2022/09/01 11:28:15;;;;;;;12.27;5.63;;;20.70;99.90;;;;;;5065937;28;20020;-59
2022/09/01 11:31:04;;;;;;;13.27;5.05;;;20.70;99.90;;;;;;5070934;28;20028;-59
2022/09/01 11:33:49;;;;;;;9.88;4.47;;;20.80;99.90;;;;;;5060867;28;20467;-58
2022/09/01 11:36:47;;;;;;;10.95;5.15;;;20.80;99.90;;;;;;5082285;28;20028;-58
2022/09/01 11:39:32;;;;;;;9.10;5.05;;;20.60;99.90;;;;;;5062252;28;20072;-58
2022/09/01 11:42:12;;;;;;;14.02;4.47;;;20.30;99.90;;;;;;5058112;28;20482;-58
2022/09/01 11:45:02;;;;;;;9.90;5.47;;;20.20;99.90;;;;;;5079672;28;20021;-59
2022/09/01 11:47:38;;;;;;;11.60;6.45;;;20.00;99.90;;;;;;5081458;28;20107;-59
2022/09/01 11:50:37;;;;;;;10.13;6.00;;;19.90;99.90;;;;;;5091730;28;20153;-59
2022/09/01 11:53:05;;;;;;;9.63;6.05;;;19.80;99.90;;;;;;5078423;28;20560;-59
2022/09/01 11:55:38;;;;;;;12.07;6.22;;;19.70;99.90;;;;;;5077389;28;20036;-59
2022/09/01 11:58:08;;;;;;;9.30;6.47;;;19.70;99.90;;;;;;5050395;28;20025;-58
2022/09/01 12:00:38;;;;;;;9.57;6.72;;;19.50;99.90;;;;;;5069995;28;20021;-59
2022/09/01 12:03:25;;;;;;;11.27;6.22;;;19.50;99.90;;;;;;5049051;28;20047;-58
2022/09/01 12:06:06;;;;;;;13.45;6.32;;;19.40;99.90;;;;;;5067183;28;20028;-58
2022/09/01 12:08:37;;;;;;;11.02;6.93;;;19.20;99.90;;;;;;5062337;28;20107;-58
2022/09/01 12:11:07;;;;;;;14.48;6.80;;;19.20;99.90;;;;;;5060047;28;20028;-58
2022/09/01 12:13:35;;;;;;;136.15;17.42;;;19.10;99.90;;;;;;5067719;28;20501;-58
2022/09/01 12:16:04;;;;;;;11.77;7.30;;;19.10;99.90;;;;;;5068673;28;20032;-58
2022/09/01 12:18:46;;;;;;;16.77;8.45;;;19.20;99.90;;;;;;5066817;28;20029;-58
2022/09/01 12:21:29;;;;;;;21.48;8.40;;;19.20;99.90;;;;;;5071770;28;20071;-58
2022/09/01 12:24:13;;;;;;;20.40;8.23;;;19.10;99.90;;;;;;5065739;28;20063;-58
2022/09/01 12:26:41;;;;;;;29.02;12.02;;;18.90;99.90;;;;;;5075713;28;20024;-58
2022/09/01 12:29:08;;;;;;;17.13;9.93;;;19.00;99.90;;;;;;5067921;28;20056;-58
2022/09/01 12:31:35;;;;;;;25.70;10.60;;;18.90;99.90;;;;;;5077105;28;20499;-58
2022/09/01 12:34:03;;;;;;;21.73;8.82;;;18.90;99.90;;;;;;5067770;28;20110;-58
2022/09/01 12:36:32;;;;;;;13.13;8.90;;;18.80;99.90;;;;;;5071598;28;20052;-58
2022/09/01 12:39:16;;;;;;;21.23;10.23;;;18.80;99.90;;;;;;5067890;28;20061;-58
2022/09/01 12:41:45;;;;;;;16.10;9.27;;;18.70;99.90;;;;;;5064036;28;20505;-58
2022/09/01 12:44:37;;;;;;;15.70;9.93;;;18.60;99.90;;;;;;5078658;28;20058;-58
2022/09/01 12:47:09;;;;;;;15.50;9.20;;;18.60;99.90;;;;;;5065570;28;20071;-58
2022/09/01 12:49:42;;;;;;;14.43;9.27;;;18.70;99.90;;;;;;5064810;28;20044;-58
2022/09/01 12:52:18;;;;;;;15.05;8.85;;;18.60;99.90;;;;;;5087571;28;20036;-58
2022/09/01 12:54:49;;;;;;;20.67;9.35;;;18.40;99.90;;;;;;5069752;28;20020;-58
2022/09/01 12:57:37;;;;;;;22.42;10.25;;;18.40;99.90;;;;;;5082612;28;20321;-58
2022/09/01 13:00:18;;;;;;;25.92;9.68;;;18.30;99.90;;;;;;5072728;28;20120;-58
2022/09/01 13:03:12;;;;;;;18.38;9.13;;;18.30;99.90;;;;;;5065086;28;20102;-58
2022/09/01 13:05:41;;;;;;;16.92;9.85;;;18.30;99.90;;;;;;5066760;28;20017;-58
2022/09/01 13:08:14;;;;;;;15.57;9.65;;;18.20;99.90;;;;;;5064341;28;20389;-58
2022/09/01 13:10:49;;;;;;;26.63;10.38;;;18.30;99.90;;;;;;5076359;28;20033;-58